Time;durP1;ratioP1;P1;durP2;ratioP2;P2;SDS_P1;SDS_P2;PMS_P1;PMS_P2;Temp;Humidity;BMP_temperature;BMP_pressure;BME280_temperature;BME280_humidity;BME280_pressure;Samples;Min_cycle;Max_cycle;Signal;HPM_P1;HPM_P2
2024/02/01 00:01:07;;;;;;;6.75;4.28;;;12.10;66.50;13.70;102201.00;;;;4991705;28;20257;-72
2024/02/01 00:03:34;;;;;;;5.63;3.80;;;12.10;66.70;13.70;102202.00;;;;4992189;28;20225;-72
2024/02/01 00:06:01;;;;;;;5.97;4.07;;;12.10;66.80;13.70;102195.00;;;;4992579;28;20201;-72
2024/02/01 00:08:28;;;;;;;7.20;3.72;;;12.10;66.90;13.70;102190.00;;;;4984349;28;20198;-72
2024/02/01 00:10:56;;;;;;;6.82;3.75;;;12.10;66.90;13.70;102200.00;;;;4980656;28;20208;-72
2024/02/01 00:13:24;;;;;;;7.03;3.75;;;12.10;66.90;13.70;102180.00;;;;4988759;28;20289;-72
2024/02/01 00:15:51;;;;;;;7.15;4.00;;;12.10;67.00;13.70;102184.00;;;;4987191;28;20255;-72
2024/02/01 00:18:18;;;;;;;5.80;3.92;;;12.10;67.10;13.80;102183.00;;;;4995447;28;20285;-71
2024/02/01 00:20:45;;;;;;;8.55;3.35;;;12.10;67.10;13.80;102188.00;;;;4992196;28;20613;-71
2024/02/01 00:23:12;;;;;;;4.32;3.22;;;12.10;67.10;13.80;102179.00;;;;4992235;28;20293;-71
2024/02/01 00:25:42;;;;;;;5.45;3.65;;;12.20;67.40;13.80;102179.00;;;;4987162;28;20196;-72
2024/02/01 00:28:10;;;;;;;7.45;3.85;;;12.20;67.40;13.80;102177.00;;;;4990008;28;20197;-72
2024/02/01 00:30:39;;;;;;;5.05;3.60;;;12.20;67.20;13.80;102178.00;;;;4973179;28;20276;-72
2024/02/01 00:33:06;;;;;;;4.82;3.67;;;12.20;67.50;13.90;102177.00;;;;4987736;28;20190;-72
2024/02/01 00:35:33;;;;;;;6.03;3.95;;;12.20;67.40;13.90;102174.00;;;;4990129;28;20208;-73
2024/02/01 00:38:00;;;;;;;5.57;3.53;;;12.20;67.50;13.90;102174.00;;;;4980300;28;20221;-72
2024/02/01 00:40:27;;;;;;;4.20;3.00;;;12.20;67.60;13.90;102181.00;;;;4982894;28;20229;-72
2024/02/01 00:42:54;;;;;;;7.47;3.90;;;12.30;67.70;13.90;102186.00;;;;4988213;28;20201;-72
2024/02/01 00:45:22;;;;;;;6.55;3.50;;;12.30;67.90;13.90;102175.00;;;;4973184;28;20209;-73
2024/02/01 00:47:49;;;;;;;5.22;3.55;;;12.30;67.90;14.00;102175.00;;;;4981619;28;20578;-72
2024/02/01 00:50:17;;;;;;;4.95;3.85;;;12.30;67.90;14.00;102175.00;;;;4992360;28;20733;-72
2024/02/01 00:52:44;;;;;;;6.22;3.78;;;12.30;67.90;14.00;102189.00;;;;4992012;28;20647;-72
2024/02/01 00:55:11;;;;;;;3.97;3.17;;;12.40;68.20;14.10;102191.00;;;;4988395;28;20202;-73
2024/02/01 00:57:38;;;;;;;4.32;3.13;;;12.40;68.10;14.10;102181.00;;;;4987861;28;20547;-72
2024/02/01 01:00:07;;;;;;;6.40;3.10;;;12.40;68.20;14.10;102174.00;;;;4990612;28;20214;-72
2024/02/01 01:02:36;;;;;;;4.95;3.28;;;12.50;68.20;14.10;102171.00;;;;4983690;28;20194;-72
2024/02/01 01:05:03;;;;;;;4.18;2.95;;;12.50;68.50;14.10;102175.00;;;;4995109;28;20197;-72
2024/02/01 01:07:30;;;;;;;3.83;3.05;;;12.50;68.30;14.20;102169.00;;;;4987141;28;20288;-72
2024/02/01 01:09:57;;;;;;;4.25;3.35;;;12.50;68.50;14.20;102172.00;;;;4991664;28;20194;-72
2024/02/01 01:12:24;;;;;;;6.18;3.10;;;12.60;68.50;14.20;102177.00;;;;4983021;28;20576;-71
2024/02/01 01:14:51;;;;;;;4.53;2.90;;;12.60;68.50;14.30;102175.00;;;;5008623;28;20304;-73
2024/02/01 01:17:18;;;;;;;7.35;2.80;;;12.60;68.50;14.30;102173.00;;;;4983246;28;20206;-72
2024/02/01 01:19:46;;;;;;;4.07;3.20;;;12.60;68.60;14.30;102164.00;;;;4994416;28;20570;-73
2024/02/01 01:22:14;;;;;;;4.60;3.40;;;12.70;68.60;14.40;102170.00;;;;4995388;28;20226;-71
2024/02/01 01:24:41;;;;;;;5.70;3.20;;;12.70;68.70;14.40;102176.00;;;;4989888;28;20194;-72
2024/02/01 01:27:08;;;;;;;6.90;2.90;;;12.70;68.60;14.50;102169.00;;;;4984612;28;20190;-72
2024/02/01 01:29:35;;;;;;;5.50;3.20;;;12.80;68.70;14.50;102176.00;;;;4988505;28;20296;-72
2024/02/01 01:32:02;;;;;;;5.13;2.90;;;12.80;68.80;14.50;102175.00;;;;4995197;28;20200;-74
2024/02/01 01:34:29;;;;;;;5.13;3.05;;;12.80;68.70;14.50;102177.00;;;;4989777;28;20283;-72
2024/02/01 01:36:57;;;;;;;3.38;2.80;;;12.90;69.00;14.50;102177.00;;;;5005538;28;20689;-72
2024/02/01 01:39:24;;;;;;;4.45;3.17;;;12.90;68.90;14.60;102180.00;;;;4981327;28;20566;-73
2024/02/01 01:41:51;;;;;;;3.80;3.00;;;12.90;69.00;14.60;102183.00;;;;4995382;28;20321;-73
2024/02/01 01:44:18;;;;;;;5.25;3.10;;;12.90;69.10;14.60;102187.00;;;;4993399;28;20202;-73
2024/02/01 01:46:45;;;;;;;3.58;2.75;;;13.00;69.20;14.60;102183.00;;;;4992665;28;20197;-72
2024/02/01 01:49:16;;;;;;;4.90;3.25;;;13.00;69.40;14.60;102192.00;;;;4979105;28;20193;-72
2024/02/01 01:51:45;;;;;;;5.78;3.10;;;13.00;69.40;14.70;102187.00;;;;4976034;28;20578;-72
2024/02/01 01:54:15;;;;;;;7.05;3.25;;;13.00;69.50;14.70;102187.00;;;;4975747;28;20678;-73
2024/02/01 01:56:43;;;;;;;5.90;2.92;;;13.10;69.70;14.70;102200.00;;;;4982376;28;20202;-72
2024/02/01 01:59:12;;;;;;;9.95;3.75;;;13.20;69.70;14.70;102200.00;;;;4994178;28;21280;-73
2024/02/01 02:01:42;;;;;;;4.78;3.45;;;13.20;70.00;14.70;102197.00;;;;4986684;28;20571;-73
2024/02/01 02:04:10;;;;;;;5.60;3.20;;;13.20;69.80;14.80;102196.00;;;;4993860;28;20230;-72
2024/02/01 02:06:37;;;;;;;5.72;3.20;;;13.30;69.80;14.90;102199.00;;;;4992709;28;20190;-72
2024/02/01 02:09:04;;;;;;;7.28;2.80;;;13.30;69.70;14.90;102206.00;;;;4986136;28;20253;-72
2024/02/01 02:11:33;;;;;;;9.52;3.42;;;13.30;69.80;14.90;102212.00;;;;4995496;28;20693;-71
2024/02/01 02:14:00;;;;;;;5.30;2.15;;;13.40;69.90;15.00;102216.00;;;;4991456;28;20205;-72
2024/02/01 02:16:27;;;;;;;4.97;2.58;;;13.40;69.90;15.00;102210.00;;;;4973734;28;20204;-72
2024/02/01 02:18:54;;;;;;;11.55;3.67;;;13.40;69.90;15.00;102215.00;;;;4988367;28;20224;-72
2024/02/01 02:21:23;;;;;;;10.57;3.50;;;13.40;69.80;15.00;102220.00;;;;4993910;28;20688;-72
2024/02/01 02:23:52;;;;;;;10.02;3.47;;;13.50;69.80;15.00;102218.00;;;;4990844;28;20544;-72
2024/02/01 02:26:19;;;;;;;7.97;3.20;;;13.50;69.80;15.00;102222.00;;;;4992812;28;20223;-72
2024/02/01 02:28:46;;;;;;;6.88;2.47;;;13.50;69.70;15.00;102226.00;;;;4980478;28;20201;-73
2024/02/01 02:31:13;;;;;;;9.75;3.38;;;13.50;69.60;15.00;102235.00;;;;4992172;28;20575;-71
2024/02/01 02:33:40;;;;;;;6.57;3.13;;;13.60;69.60;15.00;102230.00;;;;4990527;28;20197;-75
2024/02/01 02:36:09;;;;;;;10.80;3.03;;;13.60;69.50;15.00;102226.00;;;;4981876;28;20613;-71
2024/02/01 02:38:38;;;;;;;7.15;2.50;;;13.60;69.30;15.10;102228.00;;;;4976142;28;20218;-72
2024/02/01 02:41:07;;;;;;;5.88;2.80;;;13.60;69.30;15.00;102235.00;;;;4990104;28;20264;-71
2024/02/01 02:43:34;;;;;;;7.15;2.70;;;13.60;69.30;15.00;102240.00;;;;4993913;28;20204;-72
2024/02/01 02:46:01;;;;;;;5.75;2.63;;;13.60;69.90;15.00;102236.00;;;;4984422;28;20581;-72
2024/02/01 02:48:28;;;;;;;6.90;2.85;;;13.60;69.10;15.00;102242.00;;;;4990547;28;20288;-73
2024/02/01 02:50:56;;;;;;;10.52;3.08;;;13.60;68.90;15.00;102243.00;;;;4992098;28;20588;-72
2024/02/01 02:53:23;;;;;;;7.65;3.00;;;13.60;68.80;15.00;102244.00;;;;4993662;28;20198;-72
2024/02/01 02:55:50;;;;;;;10.38;2.50;;;13.60;68.70;15.00;102255.00;;;;4989628;28;20284;-72
2024/02/01 02:58:18;;;;;;;10.70;2.50;;;13.60;68.60;14.90;102254.00;;;;4986438;28;20209;-73
2024/02/01 03:00:45;;;;;;;6.07;2.20;;;13.50;68.60;14.90;102262.00;;;;4977394;28;20714;-72
2024/02/01 03:03:12;;;;;;;8.35;2.58;;;13.50;68.40;14.90;102267.00;;;;4981247;28;20324;-71
2024/02/01 03:05:40;;;;;;;10.07;3.10;;;13.50;68.50;14.80;102267.00;;;;4989422;28;20224;-71
2024/02/01 03:08:09;;;;;;;7.38;2.42;;;13.50;68.20;14.80;102255.00;;;;4988229;28;20198;-72
2024/02/01 03:10:36;;;;;;;7.90;2.35;;;13.40;67.90;14.70;102262.00;;;;4992292;28;20234;-71
2024/02/01 03:13:05;;;;;;;5.35;1.90;;;13.40;67.90;14.70;102263.00;;;;4981871;28;20210;-72
2024/02/01 03:15:34;;;;;;;9.27;1.92;;;13.30;67.80;14.60;102275.00;;;;4990652;28;20225;-71
2024/02/01 03:18:01;;;;;;;4.57;2.10;;;13.30;67.70;14.60;102275.00;;;;4974962;28;20676;-71
2024/02/01 03:20:28;;;;;;;8.30;2.58;;;13.20;67.70;14.60;102275.00;;;;4974307;28;20193;-71
2024/02/01 03:22:55;;;;;;;6.10;1.63;;;13.20;67.80;14.60;102290.00;;;;4973844;28;20293;-71
2024/02/01 03:25:28;;;;;;;5.65;1.70;;;13.10;67.70;14.50;102301.00;;;;4988219;28;20210;-73
2024/02/01 03:28:00;;;;;;;7.28;2.13;;;13.10;67.70;14.40;102301.00;;;;4982912;28;20205;-71
2024/02/01 03:30:28;;;;;;;7.20;1.60;;;13.00;67.70;14.40;102296.00;;;;4993352;28;20288;-71
2024/02/01 03:33:01;;;;;;;4.80;1.70;;;13.00;67.60;14.40;102301.00;;;;4992764;28;20216;-71
2024/02/01 03:35:31;;;;;;;6.10;1.40;;;13.00;67.50;14.30;102300.00;;;;4992204;28;20202;-71
2024/02/01 03:37:59;;;;;;;9.43;1.98;;;12.90;67.40;14.30;102313.00;;;;4993258;28;20217;-72
2024/02/01 03:40:26;;;;;;;5.07;1.88;;;12.80;67.30;14.20;102313.00;;;;4992381;28;20202;-71
2024/02/01 03:42:53;;;;;;;8.52;1.83;;;12.80;67.20;14.10;102324.00;;;;4983818;28;20714;-71
2024/02/01 03:45:20;;;;;;;11.93;2.00;;;12.70;67.10;14.10;102332.00;;;;4991696;28;20260;-71
2024/02/01 03:47:47;;;;;;;9.18;1.38;;;12.60;67.00;14.00;102346.00;;;;4992155;28;20659;-71
2024/02/01 03:50:19;;;;;;;10.35;1.58;;;12.60;66.90;13.90;102357.00;;;;4992696;28;20300;-71
2024/02/01 03:52:46;;;;;;;7.05;1.77;;;12.50;66.70;13.80;102365.00;;;;4992483;28;20233;-71
2024/02/01 03:55:17;;;;;;;6.88;1.38;;;12.40;66.60;13.70;102354.00;;;;4990135;28;20216;-72
2024/02/01 03:57:44;;;;;;;5.65;1.23;;;12.40;66.60;13.70;102366.00;;;;4992736;28;20237;-72
2024/02/01 04:00:25;;;;;;;8.43;1.63;;;12.30;66.50;13.60;102383.00;;;;4991068;28;20554;-71
2024/02/01 04:02:56;;;;;;;6.05;1.27;;;12.20;66.40;13.50;102385.00;;;;4972721;28;20607;-72
2024/02/01 04:05:24;;;;;;;4.13;0.80;;;12.10;66.30;13.40;102392.00;;;;4986380;28;20442;-72
2024/02/01 04:07:52;;;;;;;5.60;1.02;;;12.00;66.20;13.40;102407.00;;;;4992061;28;20706;-71
2024/02/01 04:10:19;;;;;;;3.58;1.08;;;11.90;66.20;13.30;102409.00;;;;4991765;28;20212;-71
2024/02/01 04:12:46;;;;;;;6.95;1.50;;;11.90;66.20;13.30;102406.00;;;;4986954;28;20198;-71
2024/02/01 04:15:13;;;;;;;5.82;1.23;;;11.80;66.20;13.20;102414.00;;;;4984022;28;20200;-71
2024/02/01 04:17:42;;;;;;;5.70;0.82;;;11.70;66.20;13.10;102431.00;;;;4977712;28;20292;-71
2024/02/01 04:20:13;;;;;;;5.65;1.13;;;11.70;66.20;13.00;102435.00;;;;4978265;28;20239;-71
2024/02/01 04:22:42;;;;;;;4.18;0.95;;;11.60;66.10;13.00;102432.00;;;;4988069;28;20232;-72
2024/02/01 04:25:10;;;;;;;5.68;1.08;;;11.60;66.20;13.00;102436.00;;;;4982039;28;20288;-72
2024/02/01 04:27:37;;;;;;;10.38;1.40;;;11.50;66.10;12.90;102446.00;;;;4977105;28;20304;-72
2024/02/01 04:30:06;;;;;;;4.10;1.10;;;11.40;66.10;12.90;102444.00;;;;4983499;28;20204;-72
2024/02/01 04:32:33;;;;;;;3.42;0.88;;;11.40;66.20;12.80;102454.00;;;;4986358;28;20198;-72
2024/02/01 04:35:03;;;;;;;9.43;0.95;;;11.30;66.20;12.80;102450.00;;;;4984054;28;20197;-71
2024/02/01 04:37:32;;;;;;;6.20;1.00;;;11.20;66.20;12.70;102452.00;;;;4990852;28;20220;-71
2024/02/01 04:40:03;;;;;;;7.07;0.60;;;11.20;66.20;12.60;102464.00;;;;4991365;28;20204;-71
2024/02/01 04:42:30;;;;;;;7.90;1.20;;;11.10;66.20;12.60;102472.00;;;;4982853;28;20218;-71
2024/02/01 04:44:58;;;;;;;3.92;0.88;;;11.00;66.20;12.50;102478.00;;;;4988255;28;20201;-71
2024/02/01 04:47:25;;;;;;;5.07;1.20;;;11.00;66.20;12.50;102475.00;;;;4991691;28;20197;-71
2024/02/01 04:49:52;;;;;;;6.43;0.90;;;10.90;66.00;12.40;102481.00;;;;4992526;28;20200;-71
2024/02/01 04:52:19;;;;;;;7.85;1.20;;;10.90;66.00;12.40;102491.00;;;;4992478;28;20278;-71
2024/02/01 04:54:47;;;;;;;4.88;1.05;;;10.80;66.10;12.30;102493.00;;;;4990619;28;20665;-71
2024/02/01 04:57:15;;;;;;;5.07;1.15;;;10.70;66.00;12.30;102496.00;;;;4991602;28;20212;-72
2024/02/01 04:59:44;;;;;;;5.60;0.93;;;10.70;66.00;12.30;102499.00;;;;4996000;28;20304;-71
2024/02/01 05:02:11;;;;;;;1.90;0.60;;;10.60;66.00;12.20;102498.00;;;;5011543;28;20233;-71
2024/02/01 05:04:38;;;;;;;4.68;1.20;;;10.60;66.10;12.20;102507.00;;;;5001053;28;20231;-71
2024/02/01 05:07:06;;;;;;;6.03;1.48;;;10.50;66.00;12.10;102508.00;;;;4978771;28;20626;-71
2024/02/01 05:09:34;;;;;;;5.55;1.40;;;10.50;66.10;12.00;102500.00;;;;4990603;28;20267;-71
2024/02/01 05:12:01;;;;;;;5.22;0.95;;;10.40;66.10;12.00;102498.00;;;;4991100;28;20205;-73
2024/02/01 05:14:30;;;;;;;5.15;1.05;;;10.30;66.00;11.90;102493.00;;;;4991496;28;20205;-70
2024/02/01 05:16:57;;;;;;;3.45;0.60;;;10.20;66.00;11.90;102499.00;;;;4989226;28;20198;-71
2024/02/01 05:19:25;;;;;;;6.53;1.13;;;10.20;66.10;11.80;102498.00;;;;4983995;28;20638;-71
2024/02/01 05:21:53;;;;;;;4.13;0.70;;;10.10;65.90;11.80;102498.00;;;;4973675;28;20317;-71
2024/02/01 05:24:21;;;;;;;4.32;1.10;;;10.10;66.10;11.70;102499.00;;;;4989463;28;20245;-71
2024/02/01 05:26:50;;;;;;;4.07;1.15;;;10.00;66.00;11.70;102495.00;;;;4986120;28;20197;-71
2024/02/01 05:29:19;;;;;;;4.68;1.17;;;10.00;66.00;11.60;102494.00;;;;4995780;28;20204;-71
2024/02/01 05:31:51;;;;;;;8.88;1.05;;;9.90;66.00;11.50;102500.00;;;;4977456;28;20241;-71
2024/02/01 05:34:18;;;;;;;4.30;1.45;;;9.80;66.00;11.50;102498.00;;;;4972754;28;20206;-71
2024/02/01 05:36:47;;;;;;;6.18;1.23;;;9.70;65.90;11.40;102504.00;;;;4972432;28;20203;-71
2024/02/01 05:39:25;;;;;;;4.40;0.77;;;9.70;66.00;11.40;102521.00;;;;4981280;28;20224;-71
2024/02/01 05:41:53;;;;;;;3.35;0.90;;;9.60;65.90;11.30;102529.00;;;;4993331;28;20225;-71
2024/02/01 05:44:21;;;;;;;5.80;1.35;;;9.60;65.90;11.30;102534.00;;;;4994507;28;20198;-71
2024/02/01 05:46:53;;;;;;;7.22;1.05;;;9.50;65.90;11.20;102537.00;;;;4987613;28;20213;-72
2024/02/01 05:49:20;;;;;;;4.07;0.90;;;9.40;65.90;11.10;102548.00;;;;4975656;28;20198;-71
2024/02/01 05:51:49;;;;;;;2.88;0.90;;;9.40;66.00;11.10;102546.00;;;;4975046;28;20234;-71
2024/02/01 05:54:19;;;;;;;2.67;0.75;;;9.30;66.00;11.00;102553.00;;;;4983262;28;20579;-70
2024/02/01 05:56:47;;;;;;;4.35;1.05;;;9.30;66.00;11.00;102556.00;;;;4992632;28;20202;-71
2024/02/01 05:59:17;;;;;;;6.07;1.55;;;9.20;66.00;10.90;102566.00;;;;4992193;28;20186;-72
2024/02/01 06:01:45;;;;;;;2.60;0.95;;;9.20;66.10;10.90;102557.00;;;;4981573;28;20232;-72
2024/02/01 06:04:15;;;;;;;5.90;1.27;;;9.10;66.00;10.80;102554.00;;;;4987551;28;20583;-71
2024/02/01 06:06:46;;;;;;;3.88;1.23;;;9.00;66.00;10.70;102565.00;;;;4992835;28;20459;-71
2024/02/01 06:09:14;;;;;;;3.95;1.25;;;9.00;66.00;10.70;102575.00;;;;5011891;28;20276;-71
2024/02/01 06:11:43;;;;;;;4.05;0.68;;;8.90;66.00;10.60;102583.00;;;;4996289;28;20194;-71
2024/02/01 06:14:11;;;;;;;8.75;1.50;;;8.90;66.00;10.60;102591.00;;;;4991383;28;20193;-71
2024/02/01 06:16:38;;;;;;;3.75;0.75;;;8.80;66.00;10.60;102591.00;;;;4993279;28;20201;-71
2024/02/01 06:19:05;;;;;;;3.83;1.13;;;8.80;66.10;10.50;102596.00;;;;4994611;28;20640;-71
2024/02/01 06:21:33;;;;;;;3.28;0.82;;;8.70;66.00;10.50;102607.00;;;;5006244;28;20285;-71
2024/02/01 06:24:00;;;;;;;7.45;1.17;;;8.70;66.00;10.40;102600.00;;;;4989810;28;20194;-72
2024/02/01 06:26:29;;;;;;;4.75;1.15;;;8.60;66.70;10.40;102606.00;;;;4988762;28;20201;-71
2024/02/01 06:29:00;;;;;;;3.25;1.13;;;8.60;66.00;10.30;102611.00;;;;4985049;28;20281;-71
2024/02/01 06:31:27;;;;;;;7.50;1.70;;;8.50;66.00;10.30;102614.00;;;;4999836;28;20269;-71
2024/02/01 06:33:55;;;;;;;3.85;2.15;;;8.50;66.00;10.20;102607.00;;;;4998998;28;20781;-72
2024/02/01 06:36:29;;;;;;;4.70;1.85;;;8.40;66.00;10.20;102597.00;;;;4990939;28;20252;-71
2024/02/01 06:39:16;;;;;;;5.65;1.98;;;8.40;66.10;10.10;102600.00;;;;4988638;28;20212;-71
2024/02/01 06:41:51;;;;;;;4.45;1.60;;;8.40;66.20;10.10;102613.00;;;;4990334;28;20210;-71
2024/02/01 06:44:24;;;;;;;8.10;1.60;;;8.30;66.10;10.10;102618.00;;;;4991602;28;20193;-72
2024/02/01 06:47:11;;;;;;;5.65;1.60;;;8.30;66.10;10.00;102617.00;;;;4986942;28;20198;-72
2024/02/01 06:50:03;;;;;;;3.45;1.40;;;8.20;66.20;9.90;102626.00;;;;4974233;28;20209;-72
2024/02/01 06:52:39;;;;;;;5.60;1.65;;;8.20;66.20;9.90;102626.00;;;;4986655;28;20241;-71
2024/02/01 06:58:13;;;;;;;5.28;1.58;;;8.10;66.20;9.90;102650.00;;;;4984700;28;20266;-71
2024/02/01 07:01:01;;;;;;;5.95;1.58;;;8.10;66.10;9.80;102650.00;;;;4981909;28;20248;-72
2024/02/01 07:03:57;;;;;;;3.70;0.80;;;8.00;66.00;9.80;102644.00;;;;4991190;28;20229;-71
2024/02/01 07:06:38;;;;;;;6.18;1.73;;;8.00;66.00;9.70;102654.00;;;;4986720;28;20198;-74
2024/02/01 07:12:09;;;;;;;4.00;0.95;;;7.90;66.10;9.60;102659.00;;;;4989092;28;20196;-72
2024/02/01 07:14:41;;;;;;;5.43;1.25;;;7.80;66.00;9.60;102670.00;;;;4994723;28;20647;-72
2024/02/01 07:20:14;;;;;;;5.13;1.13;;;7.80;66.10;9.50;102686.00;;;;4941870;28;20423;-72
2024/02/01 07:23:00;;;;;;;4.30;1.50;;;7.80;66.10;9.50;102692.00;;;;4980490;28;20225;-72
2024/02/01 07:25:36;;;;;;;3.90;0.93;;;7.70;66.10;9.50;102704.00;;;;4988789;28;20185;-72
2024/02/01 07:58:26;;;;;;;6.80;1.98;;;7.40;66.50;9.20;102732.00;;;;4955504;28;20690;-72
2024/02/01 08:00:56;;;;;;;5.20;1.88;;;7.40;66.60;9.20;102751.00;;;;4975978;28;20199;-72
2024/02/01 08:03:32;;;;;;;6.60;2.13;;;7.40;66.60;9.30;102741.00;;;;4993514;28;20252;-71
2024/02/01 08:08:44;;;;;;;5.95;1.83;;;7.40;66.70;9.30;102747.00;;;;4981966;28;20201;-72
2024/02/01 08:11:17;;;;;;;6.00;1.77;;;7.40;66.80;9.30;102762.00;;;;4982910;28;20195;-74
2024/02/01 08:13:48;;;;;;;5.93;1.20;;;7.40;66.80;9.30;102764.00;;;;4973721;28;20278;-72
2024/02/01 08:16:18;;;;;;;7.43;2.08;;;7.40;66.80;9.30;102767.00;;;;4986981;28;20670;-72
2024/02/01 08:18:46;;;;;;;7.10;1.95;;;7.40;66.90;9.30;102778.00;;;;4979986;28;20547;-72
2024/02/01 08:21:19;;;;;;;7.25;2.00;;;7.40;66.90;9.30;102768.00;;;;4986982;28;20197;-74
2024/02/01 08:23:46;;;;;;;5.50;2.25;;;7.40;66.90;9.40;102777.00;;;;4986666;28;20221;-71
2024/02/01 08:26:16;;;;;;;5.15;1.70;;;7.40;67.00;9.40;102788.00;;;;4985533;28;20189;-73
2024/02/01 08:28:43;;;;;;;4.25;1.80;;;7.50;67.10;9.40;102788.00;;;;4990077;28;20433;-72
2024/02/01 08:31:14;;;;;;;7.63;2.10;;;7.50;67.20;9.50;102792.00;;;;4989134;28;20197;-71
2024/02/01 08:33:44;;;;;;;5.75;2.33;;;7.50;67.20;9.40;102792.00;;;;4989582;28;20201;-71
2024/02/01 08:36:12;;;;;;;6.57;2.60;;;7.50;67.20;9.50;102795.00;;;;4989478;28;20190;-71
2024/02/01 08:38:40;;;;;;;7.35;2.28;;;7.60;67.30;9.50;102794.00;;;;4978397;28;21142;-72
2024/02/01 08:41:07;;;;;;;9.38;2.67;;;7.60;67.30;9.60;102804.00;;;;4978598;28;20197;-71
2024/02/01 08:43:38;;;;;;;6.90;2.45;;;7.60;67.40;9.60;102807.00;;;;4984656;28;20644;-71
2024/02/01 08:46:07;;;;;;;6.20;2.47;;;7.70;67.50;9.60;102810.00;;;;4989006;28;20288;-71
2024/02/01 08:48:34;;;;;;;8.32;2.40;;;7.70;67.50;9.70;102808.00;;;;4984946;28;20197;-72
2024/02/01 08:51:02;;;;;;;14.30;2.15;;;7.70;67.60;9.70;102819.00;;;;4975460;28;20194;-71
2024/02/01 08:53:29;;;;;;;5.53;1.70;;;7.80;67.80;9.80;102825.00;;;;4989178;28;20194;-72
2024/02/01 08:55:56;;;;;;;10.05;2.20;;;7.80;67.90;9.80;102832.00;;;;4987898;28;20197;-72
2024/02/01 08:58:23;;;;;;;18.17;2.72;;;7.90;68.00;9.90;102821.00;;;;4986787;28;20205;-72
2024/02/01 09:00:51;;;;;;;8.88;3.00;;;7.90;68.10;9.90;102821.00;;;;4986390;28;20198;-72
2024/02/01 09:03:21;;;;;;;13.07;2.95;;;7.90;68.10;10.00;102822.00;;;;4986175;28;20240;-74
2024/02/01 09:05:51;;;;;;;10.45;3.05;;;8.00;68.20;10.00;102829.00;;;;4985075;28;20195;-72
2024/02/01 09:08:24;;;;;;;7.75;2.22;;;8.10;68.20;10.10;102827.00;;;;4989074;28;20193;-73
2024/02/01 09:10:57;;;;;;;12.52;1.98;;;8.10;68.20;10.10;102833.00;;;;4974037;28;20194;-71
2024/02/01 09:13:28;;;;;;;10.30;2.28;;;8.20;68.30;10.20;102830.00;;;;4979783;28;20739;-72
2024/02/01 09:15:56;;;;;;;3.90;1.88;;;8.20;68.30;10.20;102820.00;;;;4984447;28;20230;-72
2024/02/01 09:18:25;;;;;;;7.40;1.70;;;8.30;68.40;10.30;102830.00;;;;4985152;28;20205;-73
2024/02/01 09:20:52;;;;;;;6.60;1.80;;;8.40;68.40;10.40;102843.00;;;;4982782;28;20232;-71
2024/02/01 09:23:22;;;;;;;7.43;1.98;;;8.40;68.50;10.40;102826.00;;;;4989609;28;20240;-73
2024/02/01 09:25:50;;;;;;;5.18;1.38;;;8.50;68.50;10.50;102842.00;;;;4996303;28;20196;-71
2024/02/01 09:28:17;;;;;;;4.90;0.93;;;8.60;68.60;10.50;102846.00;;;;4986039;28;20289;-71
2024/02/01 09:30:47;;;;;;;8.82;1.80;;;8.60;68.60;10.60;102856.00;;;;4979298;28;20621;-71
2024/02/01 09:33:15;;;;;;;2.58;0.85;;;8.70;68.70;10.70;102857.00;;;;4990668;28;20643;-71
2024/02/01 09:35:43;;;;;;;11.00;2.00;;;8.80;68.70;10.70;102863.00;;;;4990478;28;20210;-71
2024/02/01 09:38:10;;;;;;;7.05;1.42;;;8.80;68.70;10.80;102861.00;;;;4987901;28;20219;-71
2024/02/01 09:40:41;;;;;;;14.00;2.03;;;8.90;68.70;10.90;102866.00;;;;4989601;28;20194;-74
2024/02/01 09:43:17;;;;;;;7.88;2.17;;;9.00;68.80;10.90;102858.00;;;;4988119;28;20221;-71
2024/02/01 09:45:44;;;;;;;4.88;1.40;;;9.10;68.90;11.00;102862.00;;;;4989172;28;20201;-71
2024/02/01 09:48:16;;;;;;;5.22;1.27;;;9.20;68.90;11.10;102870.00;;;;4991636;28;20215;-71
2024/02/01 09:50:49;;;;;;;11.38;1.40;;;9.20;68.90;11.10;102889.00;;;;4988744;28;20213;-71
2024/02/01 09:53:16;;;;;;;7.78;1.50;;;9.30;68.80;11.20;102885.00;;;;4980964;28;20193;-71
2024/02/01 09:55:45;;;;;;;8.32;1.90;;;9.40;68.90;11.30;102885.00;;;;4997272;28;20749;-72
2024/02/01 09:58:12;;;;;;;11.15;2.10;;;9.50;68.90;11.40;102896.00;;;;4994604;28;20205;-73
2024/02/01 10:00:39;;;;;;;11.82;2.53;;;9.50;68.80;11.40;102906.00;;;;4988934;28;20608;-72
2024/02/01 10:05:13;;;;;;;9.73;2.35;;;9.60;68.80;11.50;102906.00;;;;5088447;28;20604;-71
2024/02/01 10:07:40;;;;;;;16.67;2.45;;;9.80;68.80;11.60;102910.00;;;;5059484;28;20561;-70
2024/02/01 10:10:11;;;;;;;8.00;2.40;;;9.80;68.60;11.70;102919.00;;;;5066661;28;20679;-71
2024/02/01 10:12:39;;;;;;;11.75;2.22;;;9.90;68.60;11.80;102923.00;;;;5056270;28;20194;-70
2024/02/01 10:15:10;;;;;;;9.20;2.35;;;10.00;68.60;11.80;102917.00;;;;5060617;28;20568;-70
2024/02/01 10:17:45;;;;;;;12.15;2.50;;;10.10;68.60;11.90;102918.00;;;;5057878;28;20240;-71
2024/02/01 10:20:35;;;;;;;8.63;1.80;;;10.10;68.60;11.80;102904.00;;;;5058032;28;20244;-70
2024/02/01 10:23:04;;;;;;;10.25;1.88;;;10.20;68.40;12.00;102905.00;;;;5059453;28;20689;-70
2024/02/01 10:25:38;;;;;;;14.57;2.38;;;10.30;68.30;12.10;102911.00;;;;5066814;28;20678;-70
2024/02/01 10:28:09;;;;;;;8.88;2.03;;;10.40;68.20;12.10;102921.00;;;;5065900;28;20285;-70
2024/02/01 10:30:39;;;;;;;17.55;2.03;;;10.50;68.20;12.30;102932.00;;;;5063555;28;20273;-70
2024/02/01 10:33:09;;;;;;;9.18;1.92;;;10.60;68.30;12.40;102914.00;;;;5059160;28;20195;-70
2024/02/01 10:35:38;;;;;;;7.15;1.85;;;10.70;68.30;12.40;102917.00;;;;5067844;28;20179;-70
2024/02/01 10:38:14;;;;;;;10.00;1.88;;;10.80;68.10;12.50;102927.00;;;;5064832;28;20242;-70
2024/02/01 10:40:58;;;;;;;14.10;2.22;;;10.80;68.00;12.50;102935.00;;;;5064043;28;20277;-70
2024/02/01 10:43:27;;;;;;;10.57;1.60;;;10.90;67.90;12.70;102927.00;;;;5048394;28;20314;-70
2024/02/01 10:46:06;;;;;;;7.32;1.67;;;11.00;67.80;12.80;102929.00;;;;5049186;28;20283;-69
2024/02/01 10:48:40;;;;;;;7.22;1.60;;;11.10;67.90;12.90;102926.00;;;;5062400;28;20184;-70
2024/02/01 10:51:13;;;;;;;10.32;2.08;;;11.20;67.80;13.00;102920.00;;;;5050386;28;20187;-70
2024/02/01 10:53:43;;;;;;;11.93;2.22;;;11.30;68.20;13.10;102919.00;;;;5057690;28;20206;-70
2024/02/01 10:56:16;;;;;;;15.18;1.98;;;11.40;67.30;13.10;102925.00;;;;5051231;28;20187;-70
2024/02/01 10:58:46;;;;;;;9.38;2.33;;;11.50;67.10;13.20;102917.00;;;;5058399;28;20206;-70
2024/02/01 11:01:16;;;;;;;14.90;3.13;;;11.60;67.10;13.30;102922.00;;;;5062036;28;20722;-70
2024/02/01 11:03:47;;;;;;;12.48;2.65;;;11.60;67.00;13.40;102929.00;;;;5055082;28;20557;-71
2024/02/01 11:06:17;;;;;;;13.70;2.50;;;11.70;66.90;13.50;102929.00;;;;5056056;28;20281;-70
2024/02/01 11:08:47;;;;;;;9.20;1.50;;;11.80;66.90;13.60;102929.00;;;;5067605;28;20652;-70
2024/02/01 11:11:17;;;;;;;9.77;1.88;;;11.90;66.80;13.70;102926.00;;;;5061499;28;20206;-70
2024/02/01 11:13:49;;;;;;;9.60;1.92;;;12.00;66.40;13.70;102920.00;;;;5065403;28;20294;-70
2024/02/01 11:16:18;;;;;;;13.10;2.65;;;12.10;66.40;13.80;102932.00;;;;5043631;28;20202;-70
2024/02/01 11:18:54;;;;;;;10.52;2.20;;;12.10;66.20;13.80;102935.00;;;;5054251;28;20787;-70
2024/02/01 11:21:32;;;;;;;9.23;1.65;;;12.20;65.90;13.80;102927.00;;;;5051437;28;20195;-71
2024/02/01 11:24:11;;;;;;;7.95;2.05;;;12.30;65.50;13.90;102922.00;;;;5034594;28;20286;-70
2024/02/01 11:26:40;;;;;;;14.18;3.25;;;12.30;65.40;14.00;102923.00;;;;5053262;28;20183;-70
2024/02/01 11:29:10;;;;;;;8.93;2.05;;;12.40;65.40;14.10;102928.00;;;;5041390;28;20215;-70
2024/02/01 11:31:38;;;;;;;8.27;1.73;;;12.50;65.20;14.10;102933.00;;;;5037559;28;20191;-71
2024/02/01 11:34:06;;;;;;;9.05;1.85;;;12.50;65.10;14.20;102926.00;;;;5040328;28;20203;-69
2024/02/01 11:36:36;;;;;;;10.80;2.47;;;12.60;65.10;14.30;102937.00;;;;5037081;28;20192;-71
2024/02/01 11:39:04;;;;;;;10.57;1.85;;;12.60;65.00;14.40;102941.00;;;;5052131;28;20302;-70
2024/02/01 11:41:32;;;;;;;12.30;1.90;;;12.70;64.90;14.50;102940.00;;;;5036473;28;20191;-70
2024/02/01 11:44:00;;;;;;;10.25;1.92;;;12.70;64.70;14.50;102939.00;;;;5052819;28;20261;-70